sensor_id;sensor_type;location;lat;lon;timestamp;P1;durP1;ratioP1;P2;durP2;ratioP2
67562;SDS011;54392;53.556;49.214;2022-09-03T00:04:15;12.45;;;7.97;;
67562;SDS011;54392;53.556;49.214;2022-09-03T00:06:53;19.33;;;9.63;;
67562;SDS011;54392;53.556;49.214;2022-09-03T00:09:30;21.98;;;10.38;;
67562;SDS011;54392;53.556;49.214;2022-09-03T00:12:09;13.18;;;8.93;;
67562;SDS011;54392;53.556;49.214;2022-09-03T00:14:40;14.63;;;10.70;;
67562;SDS011;54392;53.556;49.214;2022-09-03T00:17:20;13.82;;;8.68;;
67562;SDS011;54392;53.556;49.214;2022-09-03T00:19:53;14.52;;;8.68;;
67562;SDS011;54392;53.556;49.214;2022-09-03T00:22:44;19.50;;;11.55;;
67562;SDS011;54392;53.556;49.214;2022-09-03T00:25:14;20.35;;;9.68;;
67562;SDS011;54392;53.556;49.214;2022-09-03T00:27:51;13.60;;;9.77;;
67562;SDS011;54392;53.556;49.214;2022-09-03T00:30:22;23.87;;;10.50;;
67562;SDS011;54392;53.556;49.214;2022-09-03T00:32:56;9.68;;;7.85;;
67562;SDS011;54392;53.556;49.214;2022-09-03T00:35:42;17.10;;;9.05;;
67562;SDS011;54392;53.556;49.214;2022-09-03T00:38:14;16.58;;;7.12;;
67562;SDS011;54392;53.556;49.214;2022-09-03T00:51:32;16.95;;;12.73;;
67562;SDS011;54392;53.556;49.214;2022-09-03T00:54:51;15.53;;;10.63;;
67562;SDS011;54392;53.556;49.214;2022-09-03T00:57:15;14.77;;;10.60;;
67562;SDS011;54392;53.556;49.214;2022-09-03T01:02:40;24.25;;;11.73;;
67562;SDS011;54392;53.556;49.214;2022-09-03T01:05:42;26.95;;;17.52;;
67562;SDS011;54392;53.556;49.214;2022-09-03T01:08:30;16.77;;;12.27;;
67562;SDS011;54392;53.556;49.214;2022-09-03T01:11:13;17.35;;;14.00;;
67562;SDS011;54392;53.556;49.214;2022-09-03T01:16:43;17.12;;;11.95;;
67562;SDS011;54392;53.556;49.214;2022-09-03T01:28:01;15.77;;;11.70;;
67562;SDS011;54392;53.556;49.214;2022-09-03T01:30:43;14.43;;;9.80;;
67562;SDS011;54392;53.556;49.214;2022-09-03T01:33:27;19.33;;;12.13;;
67562;SDS011;54392;53.556;49.214;2022-09-03T01:36:19;8.73;;;7.55;;
67562;SDS011;54392;53.556;49.214;2022-09-03T01:39:43;10.30;;;8.88;;
67562;SDS011;54392;53.556;49.214;2022-09-03T01:42:16;8.30;;;6.30;;
67562;SDS011;54392;53.556;49.214;2022-09-03T01:47:31;12.68;;;8.60;;
67562;SDS011;54392;53.556;49.214;2022-09-03T01:52:55;9.82;;;7.85;;
67562;SDS011;54392;53.556;49.214;2022-09-03T01:55:32;13.05;;;8.43;;
67562;SDS011;54392;53.556;49.214;2022-09-03T01:58:13;13.68;;;10.43;;
67562;SDS011;54392;53.556;49.214;2022-09-03T02:01:11;17.50;;;10.10;;
67562;SDS011;54392;53.556;49.214;2022-09-03T02:03:44;13.18;;;11.80;;
67562;SDS011;54392;53.556;49.214;2022-09-03T02:06:14;19.67;;;12.63;;
67562;SDS011;54392;53.556;49.214;2022-09-03T02:08:41;21.05;;;12.35;;
67562;SDS011;54392;53.556;49.214;2022-09-03T02:11:10;15.38;;;11.07;;
67562;SDS011;54392;53.556;49.214;2022-09-03T02:13:37;16.55;;;11.57;;
67562;SDS011;54392;53.556;49.214;2022-09-03T02:16:10;13.40;;;10.30;;
67562;SDS011;54392;53.556;49.214;2022-09-03T02:18:43;19.40;;;12.93;;
67562;SDS011;54392;53.556;49.214;2022-09-03T02:23:38;16.67;;;12.50;;
67562;SDS011;54392;53.556;49.214;2022-09-03T02:26:05;11.12;;;8.88;;
67562;SDS011;54392;53.556;49.214;2022-09-03T02:28:31;13.75;;;11.55;;
67562;SDS011;54392;53.556;49.214;2022-09-03T02:36:45;14.48;;;9.27;;
67562;SDS011;54392;53.556;49.214;2022-09-03T02:39:12;11.77;;;10.07;;
67562;SDS011;54392;53.556;49.214;2022-09-03T02:41:39;12.25;;;7.30;;
67562;SDS011;54392;53.556;49.214;2022-09-03T02:44:12;10.93;;;8.35;;
67562;SDS011;54392;53.556;49.214;2022-09-03T02:46:44;9.88;;;6.57;;
67562;SDS011;54392;53.556;49.214;2022-09-03T02:49:19;8.93;;;6.87;;
67562;SDS011;54392;53.556;49.214;2022-09-03T02:51:46;23.33;;;9.07;;
67562;SDS011;54392;53.556;49.214;2022-09-03T02:54:12;9.52;;;6.85;;
67562;SDS011;54392;53.556;49.214;2022-09-03T02:56:41;8.48;;;6.12;;
67562;SDS011;54392;53.556;49.214;2022-09-03T02:59:16;8.50;;;6.75;;
67562;SDS011;54392;53.556;49.214;2022-09-03T03:01:43;9.23;;;7.05;;
67562;SDS011;54392;53.556;49.214;2022-09-03T03:04:09;12.68;;;8.23;;
67562;SDS011;54392;53.556;49.214;2022-09-03T03:06:35;10.10;;;7.05;;
67562;SDS011;54392;53.556;49.214;2022-09-03T03:09:04;11.35;;;6.70;;
67562;SDS011;54392;53.556;49.214;2022-09-03T03:11:31;9.23;;;6.05;;
67562;SDS011;54392;53.556;49.214;2022-09-03T03:13:57;15.07;;;6.55;;
67562;SDS011;54392;53.556;49.214;2022-09-03T03:16:24;7.50;;;5.15;;
67562;SDS011;54392;53.556;49.214;2022-09-03T03:18:51;25.70;;;6.40;;
67562;SDS011;54392;53.556;49.214;2022-09-03T03:21:19;13.07;;;5.45;;
67562;SDS011;54392;53.556;49.214;2022-09-03T03:23:45;9.07;;;6.87;;
67562;SDS011;54392;53.556;49.214;2022-09-03T03:26:13;10.13;;;8.00;;
67562;SDS011;54392;53.556;49.214;2022-09-03T03:31:18;12.75;;;9.93;;
67562;SDS011;54392;53.556;49.214;2022-09-03T03:36:22;17.90;;;10.77;;
67562;SDS011;54392;53.556;49.214;2022-09-03T03:38:51;19.00;;;12.93;;
67562;SDS011;54392;53.556;49.214;2022-09-03T03:41:21;11.07;;;8.57;;
67562;SDS011;54392;53.556;49.214;2022-09-03T03:46:39;13.15;;;8.90;;
67562;SDS011;54392;53.556;49.214;2022-09-03T03:51:48;10.18;;;7.10;;
67562;SDS011;54392;53.556;49.214;2022-09-03T03:54:14;20.42;;;7.03;;
67562;SDS011;54392;53.556;49.214;2022-09-03T03:56:44;17.27;;;7.90;;
67562;SDS011;54392;53.556;49.214;2022-09-03T03:59:10;9.88;;;6.40;;
67562;SDS011;54392;53.556;49.214;2022-09-03T04:01:37;10.38;;;5.95;;
67562;SDS011;54392;53.556;49.214;2022-09-03T04:04:05;19.08;;;7.20;;
67562;SDS011;54392;53.556;49.214;2022-09-03T04:06:31;7.82;;;7.00;;
67562;SDS011;54392;53.556;49.214;2022-09-03T04:09:00;18.12;;;8.68;;
67562;SDS011;54392;53.556;49.214;2022-09-03T04:11:28;12.43;;;8.63;;
67562;SDS011;54392;53.556;49.214;2022-09-03T04:13:58;7.50;;;6.55;;
67562;SDS011;54392;53.556;49.214;2022-09-03T04:16:25;4.78;;;2.90;;
67562;SDS011;54392;53.556;49.214;2022-09-03T04:18:52;2.60;;;2.40;;
67562;SDS011;54392;53.556;49.214;2022-09-03T04:21:22;6.28;;;2.62;;
67562;SDS011;54392;53.556;49.214;2022-09-03T04:23:52;8.75;;;2.05;;
67562;SDS011;54392;53.556;49.214;2022-09-03T04:26:20;3.90;;;3.58;;
67562;SDS011;54392;53.556;49.214;2022-09-03T04:28:48;2.30;;;2.10;;
67562;SDS011;54392;53.556;49.214;2022-09-03T04:31:24;4.05;;;3.15;;
67562;SDS011;54392;53.556;49.214;2022-09-03T04:33:51;2.85;;;2.47;;
67562;SDS011;54392;53.556;49.214;2022-09-03T04:36:20;2.67;;;2.47;;
67562;SDS011;54392;53.556;49.214;2022-09-03T04:38:49;3.85;;;3.20;;
67562;SDS011;54392;53.556;49.214;2022-09-03T04:41:20;5.18;;;2.58;;
67562;SDS011;54392;53.556;49.214;2022-09-03T04:43:51;3.67;;;2.87;;
67562;SDS011;54392;53.556;49.214;2022-09-03T04:46:25;7.90;;;4.15;;
67562;SDS011;54392;53.556;49.214;2022-09-03T04:48:59;5.60;;;4.62;;
67562;SDS011;54392;53.556;49.214;2022-09-03T04:51:28;8.10;;;4.00;;
67562;SDS011;54392;53.556;49.214;2022-09-03T04:54:00;11.18;;;6.45;;
67562;SDS011;54392;53.556;49.214;2022-09-03T04:56:28;8.32;;;7.45;;
67562;SDS011;54392;53.556;49.214;2022-09-03T04:58:56;12.77;;;7.78;;
67562;SDS011;54392;53.556;49.214;2022-09-03T05:01:32;7.65;;;6.12;;
67562;SDS011;54392;53.556;49.214;2022-09-03T05:04:00;6.80;;;6.12;;
67562;SDS011;54392;53.556;49.214;2022-09-03T05:06:27;12.70;;;7.12;;
67562;SDS011;54392;53.556;49.214;2022-09-03T05:08:54;7.55;;;6.80;;
67562;SDS011;54392;53.556;49.214;2022-09-03T05:11:21;12.10;;;7.70;;
67562;SDS011;54392;53.556;49.214;2022-09-03T05:13:50;12.10;;;7.18;;
67562;SDS011;54392;53.556;49.214;2022-09-03T05:16:18;15.52;;;9.38;;
67562;SDS011;54392;53.556;49.214;2022-09-03T05:18:50;17.98;;;7.47;;
67562;SDS011;54392;53.556;49.214;2022-09-03T05:21:19;17.10;;;8.15;;
67562;SDS011;54392;53.556;49.214;2022-09-03T05:23:49;15.35;;;8.48;;
67562;SDS011;54392;53.556;49.214;2022-09-03T05:28:51;23.35;;;17.80;;
67562;SDS011;54392;53.556;49.214;2022-09-03T05:31:24;37.00;;;19.42;;
67562;SDS011;54392;53.556;49.214;2022-09-03T05:33:55;44.13;;;28.77;;
67562;SDS011;54392;53.556;49.214;2022-09-03T05:36:25;42.90;;;31.58;;
67562;SDS011;54392;53.556;49.214;2022-09-03T05:38:57;18.92;;;15.30;;
67562;SDS011;54392;53.556;49.214;2022-09-03T05:41:26;16.27;;;10.55;;
67562;SDS011;54392;53.556;49.214;2022-09-03T05:43:54;10.63;;;6.00;;
67562;SDS011;54392;53.556;49.214;2022-09-03T05:46:25;5.05;;;4.53;;
67562;SDS011;54392;53.556;49.214;2022-09-03T05:49:07;10.50;;;6.62;;
67562;SDS011;54392;53.556;49.214;2022-09-03T05:51:41;5.15;;;4.65;;
67562;SDS011;54392;53.556;49.214;2022-09-03T05:54:09;8.30;;;4.15;;
67562;SDS011;54392;53.556;49.214;2022-09-03T05:56:38;1.87;;;1.75;;
67562;SDS011;54392;53.556;49.214;2022-09-03T05:59:08;1.40;;;1.30;;
67562;SDS011;54392;53.556;49.214;2022-09-03T06:01:36;4.85;;;1.85;;
67562;SDS011;54392;53.556;49.214;2022-09-03T06:04:04;1.05;;;0.93;;
67562;SDS011;54392;53.556;49.214;2022-09-03T06:06:32;1.48;;;1.30;;
67562;SDS011;54392;53.556;49.214;2022-09-03T06:09:04;1.70;;;1.60;;
67562;SDS011;54392;53.556;49.214;2022-09-03T06:11:42;3.97;;;1.62;;
67562;SDS011;54392;53.556;49.214;2022-09-03T06:14:09;3.08;;;1.25;;
67562;SDS011;54392;53.556;49.214;2022-09-03T06:16:42;0.90;;;0.90;;
67562;SDS011;54392;53.556;49.214;2022-09-03T06:19:10;5.35;;;1.77;;
67562;SDS011;54392;53.556;49.214;2022-09-03T06:21:38;1.27;;;1.17;;
67562;SDS011;54392;53.556;49.214;2022-09-03T06:24:11;5.32;;;0.82;;
67562;SDS011;54392;53.556;49.214;2022-09-03T06:26:41;6.50;;;2.17;;
67562;SDS011;54392;53.556;49.214;2022-09-03T06:29:08;1.50;;;1.40;;
67562;SDS011;54392;53.556;49.214;2022-09-03T06:31:35;2.08;;;1.75;;
67562;SDS011;54392;53.556;49.214;2022-09-03T06:34:07;2.40;;;1.80;;
67562;SDS011;54392;53.556;49.214;2022-09-03T06:36:33;2.33;;;1.60;;
67562;SDS011;54392;53.556;49.214;2022-09-03T06:39:03;11.23;;;1.50;;
67562;SDS011;54392;53.556;49.214;2022-09-03T06:41:29;4.35;;;1.25;;
67562;SDS011;54392;53.556;49.214;2022-09-03T06:43:59;0.88;;;0.88;;
67562;SDS011;54392;53.556;49.214;2022-09-03T06:46:28;0.93;;;0.90;;
67562;SDS011;54392;53.556;49.214;2022-09-03T06:49:03;0.95;;;0.90;;
67562;SDS011;54392;53.556;49.214;2022-09-03T06:51:32;1.42;;;1.33;;
67562;SDS011;54392;53.556;49.214;2022-09-03T06:54:03;1.85;;;1.23;;
67562;SDS011;54392;53.556;49.214;2022-09-03T06:56:34;3.20;;;1.42;;
67562;SDS011;54392;53.556;49.214;2022-09-03T07:01:48;1.40;;;1.30;;
67562;SDS011;54392;53.556;49.214;2022-09-03T07:06:46;0.90;;;0.90;;
67562;SDS011;54392;53.556;49.214;2022-09-03T07:09:12;1.42;;;0.98;;
67562;SDS011;54392;53.556;49.214;2022-09-03T07:11:43;1.77;;;1.10;;
67562;SDS011;54392;53.556;49.214;2022-09-03T07:14:17;1.15;;;1.02;;
67562;SDS011;54392;53.556;49.214;2022-09-03T07:16:44;5.80;;;1.55;;
67562;SDS011;54392;53.556;49.214;2022-09-03T07:19:11;2.92;;;1.37;;
67562;SDS011;54392;53.556;49.214;2022-09-03T07:21:38;0.80;;;0.80;;
67562;SDS011;54392;53.556;49.214;2022-09-03T07:24:12;1.10;;;1.05;;
67562;SDS011;54392;53.556;49.214;2022-09-03T07:26:40;1.23;;;1.12;;
67562;SDS011;54392;53.556;49.214;2022-09-03T07:29:11;7.43;;;2.10;;
67562;SDS011;54392;53.556;49.214;2022-09-03T07:31:46;1.55;;;1.23;;
67562;SDS011;54392;53.556;49.214;2022-09-03T07:34:16;0.88;;;0.85;;
67562;SDS011;54392;53.556;49.214;2022-09-03T07:36:46;1.37;;;1.02;;
67562;SDS011;54392;53.556;49.214;2022-09-03T07:39:15;1.85;;;1.20;;
67562;SDS011;54392;53.556;49.214;2022-09-03T07:41:43;3.45;;;1.23;;
67562;SDS011;54392;53.556;49.214;2022-09-03T07:44:21;1.75;;;1.65;;
67562;SDS011;54392;53.556;49.214;2022-09-03T07:49:33;0.90;;;0.90;;
67562;SDS011;54392;53.556;49.214;2022-09-03T07:52:04;2.67;;;1.10;;
67562;SDS011;54392;53.556;49.214;2022-09-03T07:54:30;1.45;;;1.27;;
67562;SDS011;54392;53.556;49.214;2022-09-03T07:57:01;1.17;;;1.15;;
67562;SDS011;54392;53.556;49.214;2022-09-03T07:59:35;1.85;;;1.08;;
67562;SDS011;54392;53.556;49.214;2022-09-03T08:02:05;2.05;;;1.77;;
67562;SDS011;54392;53.556;49.214;2022-09-03T08:04:34;0.95;;;0.93;;
67562;SDS011;54392;53.556;49.214;2022-09-03T08:07:00;2.00;;;1.77;;
67562;SDS011;54392;53.556;49.214;2022-09-03T08:09:28;1.62;;;1.48;;
67562;SDS011;54392;53.556;49.214;2022-09-03T08:11:54;1.20;;;1.10;;
67562;SDS011;54392;53.556;49.214;2022-09-03T08:14:23;1.98;;;1.62;;
67562;SDS011;54392;53.556;49.214;2022-09-03T08:16:54;3.30;;;2.42;;
67562;SDS011;54392;53.556;49.214;2022-09-03T08:19:22;4.37;;;1.33;;
67562;SDS011;54392;53.556;49.214;2022-09-03T08:21:48;4.12;;;1.80;;
67562;SDS011;54392;53.556;49.214;2022-09-03T08:24:16;2.25;;;1.60;;
67562;SDS011;54392;53.556;49.214;2022-09-03T08:26:45;1.05;;;0.85;;
67562;SDS011;54392;53.556;49.214;2022-09-03T08:29:11;1.17;;;1.10;;
67562;SDS011;54392;53.556;49.214;2022-09-03T08:31:41;2.12;;;1.58;;
67562;SDS011;54392;53.556;49.214;2022-09-03T08:34:08;1.17;;;1.08;;
67562;SDS011;54392;53.556;49.214;2022-09-03T08:36:37;1.77;;;1.20;;
67562;SDS011;54392;53.556;49.214;2022-09-03T08:39:06;1.55;;;1.45;;
67562;SDS011;54392;53.556;49.214;2022-09-03T08:47:04;3.17;;;1.73;;
67562;SDS011;54392;53.556;49.214;2022-09-03T08:52:37;1.85;;;1.42;;
67562;SDS011;54392;53.556;49.214;2022-09-03T08:55:15;3.05;;;2.20;;
67562;SDS011;54392;53.556;49.214;2022-09-03T08:57:49;6.70;;;2.95;;
67562;SDS011;54392;53.556;49.214;2022-09-03T09:00:26;3.05;;;1.83;;
67562;SDS011;54392;53.556;49.214;2022-09-03T09:25:31;2.17;;;1.95;;
67562;SDS011;54392;53.556;49.214;2022-09-03T09:28:16;1.58;;;1.48;;
67562;SDS011;54392;53.556;49.214;2022-09-03T09:30:44;2.20;;;1.83;;
67562;SDS011;54392;53.556;49.214;2022-09-03T09:33:13;1.35;;;1.15;;
67562;SDS011;54392;53.556;49.214;2022-09-03T09:35:48;2.78;;;1.52;;
67562;SDS011;54392;53.556;49.214;2022-09-03T09:38:15;4.30;;;1.77;;
67562;SDS011;54392;53.556;49.214;2022-09-03T09:40:55;1.33;;;1.23;;
67562;SDS011;54392;53.556;49.214;2022-09-03T09:43:28;2.00;;;1.62;;
67562;SDS011;54392;53.556;49.214;2022-09-03T09:45:54;2.50;;;2.20;;
67562;SDS011;54392;53.556;49.214;2022-09-03T09:48:50;2.15;;;1.58;;
67562;SDS011;54392;53.556;49.214;2022-09-03T09:51:24;2.92;;;1.87;;
67562;SDS011;54392;53.556;49.214;2022-09-03T09:56:56;1.75;;;1.65;;
67562;SDS011;54392;53.556;49.214;2022-09-03T09:59:24;3.05;;;1.27;;
67562;SDS011;54392;53.556;49.214;2022-09-03T10:02:11;11.10;;;1.48;;
67562;SDS011;54392;53.556;49.214;2022-09-03T10:04:40;3.60;;;2.08;;
67562;SDS011;54392;53.556;49.214;2022-09-03T10:07:24;2.22;;;1.90;;
67562;SDS011;54392;53.556;49.214;2022-09-03T10:12:27;4.18;;;1.55;;
67562;SDS011;54392;53.556;49.214;2022-09-03T10:15:07;1.50;;;1.30;;
67562;SDS011;54392;53.556;49.214;2022-09-03T10:18:10;2.12;;;1.92;;
67562;SDS011;54392;53.556;49.214;2022-09-03T10:21:07;1.62;;;1.52;;
67562;SDS011;54392;53.556;49.214;2022-09-03T10:26:18;2.72;;;2.20;;
67562;SDS011;54392;53.556;49.214;2022-09-03T10:28:50;1.30;;;1.20;;
67562;SDS011;54392;53.556;49.214;2022-09-03T10:31:35;2.40;;;1.95;;
67562;SDS011;54392;53.556;49.214;2022-09-03T10:47:39;12.05;;;2.33;;
67562;SDS011;54392;53.556;49.214;2022-09-03T10:50:15;2.47;;;2.28;;
67562;SDS011;54392;53.556;49.214;2022-09-03T10:55:48;4.72;;;2.00;;
67562;SDS011;54392;53.556;49.214;2022-09-03T11:01:30;1.80;;;1.67;;
67562;SDS011;54392;53.556;49.214;2022-09-03T11:04:19;8.20;;;2.12;;
67562;SDS011;54392;53.556;49.214;2022-09-03T11:09:47;2.90;;;1.83;;
67562;SDS011;54392;53.556;49.214;2022-09-03T11:12:23;2.60;;;1.95;;
67562;SDS011;54392;53.556;49.214;2022-09-03T11:17:29;2.62;;;1.83;;
67562;SDS011;54392;53.556;49.214;2022-09-03T11:20:17;3.05;;;2.00;;
67562;SDS011;54392;53.556;49.214;2022-09-03T11:22:45;1.85;;;1.60;;
67562;SDS011;54392;53.556;49.214;2022-09-03T11:25:14;6.60;;;2.50;;
67562;SDS011;54392;53.556;49.214;2022-09-03T11:30:09;2.35;;;1.80;;
67562;SDS011;54392;53.556;49.214;2022-09-03T11:32:43;13.00;;;2.15;;
67562;SDS011;54392;53.556;49.214;2022-09-03T11:38:00;3.67;;;1.55;;
67562;SDS011;54392;53.556;49.214;2022-09-03T11:40:32;3.67;;;1.85;;
67562;SDS011;54392;53.556;49.214;2022-09-03T11:45:40;4.57;;;2.10;;
67562;SDS011;54392;53.556;49.214;2022-09-03T11:48:16;2.10;;;1.70;;
67562;SDS011;54392;53.556;49.214;2022-09-03T11:50:51;1.42;;;1.33;;
67562;SDS011;54392;53.556;49.214;2022-09-03T11:53:23;1.52;;;1.42;;
67562;SDS011;54392;53.556;49.214;2022-09-03T11:58:37;5.35;;;2.08;;
67562;SDS011;54392;53.556;49.214;2022-09-03T12:01:09;1.55;;;1.45;;
67562;SDS011;54392;53.556;49.214;2022-09-03T12:03:50;3.03;;;1.83;;
67562;SDS011;54392;53.556;49.214;2022-09-03T12:20:47;2.30;;;1.70;;
67562;SDS011;54392;53.556;49.214;2022-09-03T12:23:25;2.27;;;2.07;;
67562;SDS011;54392;53.556;49.214;2022-09-03T12:26:00;7.25;;;2.33;;
67562;SDS011;54392;53.556;49.214;2022-09-03T12:28:38;2.45;;;1.70;;
67562;SDS011;54392;53.556;49.214;2022-09-03T12:31:13;3.12;;;1.73;;
67562;SDS011;54392;53.556;49.214;2022-09-03T12:33:57;2.97;;;2.20;;
67562;SDS011;54392;53.556;49.214;2022-09-03T12:36:40;1.75;;;1.60;;
67562;SDS011;54392;53.556;49.214;2022-09-03T12:44:25;3.37;;;2.37;;
67562;SDS011;54392;53.556;49.214;2022-09-03T12:49:33;3.12;;;2.47;;
67562;SDS011;54392;53.556;49.214;2022-09-03T12:52:07;3.08;;;2.28;;
67562;SDS011;54392;53.556;49.214;2022-09-03T12:54:59;1.62;;;1.52;;
67562;SDS011;54392;53.556;49.214;2022-09-03T12:57:39;5.05;;;2.83;;
67562;SDS011;54392;53.556;49.214;2022-09-03T13:00:13;3.37;;;2.95;;
67562;SDS011;54392;53.556;49.214;2022-09-03T13:02:44;5.97;;;2.55;;
67562;SDS011;54392;53.556;49.214;2022-09-03T13:05:16;2.17;;;1.62;;
67562;SDS011;54392;53.556;49.214;2022-09-03T13:07:45;3.00;;;2.70;;
67562;SDS011;54392;53.556;49.214;2022-09-03T13:10:23;3.25;;;2.58;;
67562;SDS011;54392;53.556;49.214;2022-09-03T13:12:56;2.85;;;2.30;;
67562;SDS011;54392;53.556;49.214;2022-09-03T13:15:24;2.20;;;2.03;;
67562;SDS011;54392;53.556;49.214;2022-09-03T13:18:03;5.47;;;2.60;;
67562;SDS011;54392;53.556;49.214;2022-09-03T13:26:20;4.50;;;2.28;;
67562;SDS011;54392;53.556;49.214;2022-09-03T13:31:48;3.72;;;2.75;;
67562;SDS011;54392;53.556;49.214;2022-09-03T13:34:34;2.90;;;2.62;;
67562;SDS011;54392;53.556;49.214;2022-09-03T13:37:11;7.15;;;3.40;;
67562;SDS011;54392;53.556;49.214;2022-09-03T13:39:57;3.75;;;3.05;;
67562;SDS011;54392;53.556;49.214;2022-09-03T13:45:39;5.15;;;3.45;;
67562;SDS011;54392;53.556;49.214;2022-09-03T13:48:13;5.07;;;3.50;;
67562;SDS011;54392;53.556;49.214;2022-09-03T14:02:48;7.07;;;4.45;;
67562;SDS011;54392;53.556;49.214;2022-09-03T14:05:24;4.32;;;3.97;;
67562;SDS011;54392;53.556;49.214;2022-09-03T14:08:07;4.03;;;3.20;;
67562;SDS011;54392;53.556;49.214;2022-09-03T14:18:58;8.55;;;7.65;;
67562;SDS011;54392;53.556;49.214;2022-09-03T14:21:32;12.37;;;6.57;;
67562;SDS011;54392;53.556;49.214;2022-09-03T14:24:25;10.80;;;7.10;;
67562;SDS011;54392;53.556;49.214;2022-09-03T14:27:02;8.40;;;5.82;;
67562;SDS011;54392;53.556;49.214;2022-09-03T14:29:32;7.68;;;5.40;;
67562;SDS011;54392;53.556;49.214;2022-09-03T14:32:08;18.95;;;5.85;;
67562;SDS011;54392;53.556;49.214;2022-09-03T14:34:49;7.40;;;5.45;;
67562;SDS011;54392;53.556;49.214;2022-09-03T14:46:06;6.55;;;5.47;;
67562;SDS011;54392;53.556;49.214;2022-09-03T14:57:16;5.87;;;4.50;;
67562;SDS011;54392;53.556;49.214;2022-09-03T15:15:44;5.15;;;4.43;;
67562;SDS011;54392;53.556;49.214;2022-09-03T15:29:32;9.27;;;4.25;;
67562;SDS011;54392;53.556;49.214;2022-09-03T15:32:27;5.20;;;4.07;;
67562;SDS011;54392;53.556;49.214;2022-09-03T15:38:19;6.10;;;3.97;;
67562;SDS011;54392;53.556;49.214;2022-09-03T15:40:54;7.35;;;4.97;;
67562;SDS011;54392;53.556;49.214;2022-09-03T15:43:26;5.45;;;4.03;;
67562;SDS011;54392;53.556;49.214;2022-09-03T15:46:27;10.65;;;4.32;;
67562;SDS011;54392;53.556;49.214;2022-09-03T15:49:07;4.78;;;3.92;;
67562;SDS011;54392;53.556;49.214;2022-09-03T15:51:56;4.87;;;3.67;;
67562;SDS011;54392;53.556;49.214;2022-09-03T15:57:23;9.80;;;4.75;;
67562;SDS011;54392;53.556;49.214;2022-09-03T16:00:10;9.32;;;5.00;;
67562;SDS011;54392;53.556;49.214;2022-09-03T16:02:55;10.57;;;5.57;;
67562;SDS011;54392;53.556;49.214;2022-09-03T16:24:58;3.83;;;3.42;;
67562;SDS011;54392;53.556;49.214;2022-09-03T16:27:32;4.18;;;3.75;;
67562;SDS011;54392;53.556;49.214;2022-09-03T16:30:11;5.97;;;4.50;;
67562;SDS011;54392;53.556;49.214;2022-09-03T16:40:53;9.18;;;5.80;;
67562;SDS011;54392;53.556;49.214;2022-09-03T16:57:10;7.47;;;4.50;;
67562;SDS011;54392;53.556;49.214;2022-09-03T16:59:49;5.30;;;4.80;;
67562;SDS011;54392;53.556;49.214;2022-09-03T17:02:30;7.40;;;4.78;;
67562;SDS011;54392;53.556;49.214;2022-09-03T17:14:21;6.60;;;4.72;;
67562;SDS011;54392;53.556;49.214;2022-09-03T17:20:11;8.60;;;4.47;;
67562;SDS011;54392;53.556;49.214;2022-09-03T17:30:55;4.90;;;3.95;;
67562;SDS011;54392;53.556;49.214;2022-09-03T17:33:34;13.43;;;4.62;;
67562;SDS011;54392;53.556;49.214;2022-09-03T17:36:12;4.78;;;3.53;;
67562;SDS011;54392;53.556;49.214;2022-09-03T17:49:41;4.45;;;3.67;;
67562;SDS011;54392;53.556;49.214;2022-09-03T17:52:19;12.77;;;4.53;;
67562;SDS011;54392;53.556;49.214;2022-09-03T17:54:53;6.53;;;3.47;;
67562;SDS011;54392;53.556;49.214;2022-09-03T17:57:36;4.50;;;4.03;;
67562;SDS011;54392;53.556;49.214;2022-09-03T18:00:06;4.90;;;4.45;;
67562;SDS011;54392;53.556;49.214;2022-09-03T18:02:36;16.23;;;4.35;;
67562;SDS011;54392;53.556;49.214;2022-09-03T18:05:20;7.80;;;3.97;;
67562;SDS011;54392;53.556;49.214;2022-09-03T18:13:42;6.62;;;4.65;;
67562;SDS011;54392;53.556;49.214;2022-09-03T18:16:27;5.60;;;5.05;;
67562;SDS011;54392;53.556;49.214;2022-09-03T18:21:28;8.15;;;5.53;;
67562;SDS011;54392;53.556;49.214;2022-09-03T18:24:22;6.03;;;4.05;;
67562;SDS011;54392;53.556;49.214;2022-09-03T18:27:16;5.55;;;4.00;;
67562;SDS011;54392;53.556;49.214;2022-09-03T18:30:09;4.62;;;4.22;;
67562;SDS011;54392;53.556;49.214;2022-09-03T18:32:56;7.95;;;4.47;;
67562;SDS011;54392;53.556;49.214;2022-09-03T18:35:45;6.97;;;5.57;;
67562;SDS011;54392;53.556;49.214;2022-09-03T18:38:31;10.57;;;6.03;;
67562;SDS011;54392;53.556;49.214;2022-09-03T18:44:28;5.95;;;5.03;;
67562;SDS011;54392;53.556;49.214;2022-09-03T18:47:36;4.90;;;4.05;;
67562;SDS011;54392;53.556;49.214;2022-09-03T18:50:26;5.45;;;3.85;;
67562;SDS011;54392;53.556;49.214;2022-09-03T18:53:27;9.10;;;6.12;;
67562;SDS011;54392;53.556;49.214;2022-09-03T18:56:25;7.82;;;6.00;;
67562;SDS011;54392;53.556;49.214;2022-09-03T19:08:35;4.65;;;3.22;;
67562;SDS011;54392;53.556;49.214;2022-09-03T19:11:31;4.83;;;3.60;;
67562;SDS011;54392;53.556;49.214;2022-09-03T19:24:05;7.03;;;5.18;;
67562;SDS011;54392;53.556;49.214;2022-09-03T19:29:50;5.10;;;4.45;;
67562;SDS011;54392;53.556;49.214;2022-09-03T19:32:52;8.55;;;5.15;;
67562;SDS011;54392;53.556;49.214;2022-09-03T19:35:56;4.87;;;4.47;;
67562;SDS011;54392;53.556;49.214;2022-09-03T19:38:53;7.93;;;4.60;;
67562;SDS011;54392;53.556;49.214;2022-09-03T19:41:43;6.80;;;4.35;;
67562;SDS011;54392;53.556;49.214;2022-09-03T19:44:47;5.00;;;3.80;;
67562;SDS011;54392;53.556;49.214;2022-09-03T19:47:46;4.55;;;4.07;;
67562;SDS011;54392;53.556;49.214;2022-09-03T19:50:50;7.37;;;4.78;;
67562;SDS011;54392;53.556;49.214;2022-09-03T19:56:30;7.75;;;6.87;;
67562;SDS011;54392;53.556;49.214;2022-09-03T19:59:23;13.52;;;6.05;;
67562;SDS011;54392;53.556;49.214;2022-09-03T20:02:33;5.62;;;5.00;;
67562;SDS011;54392;53.556;49.214;2022-09-03T20:05:19;7.03;;;5.22;;
67562;SDS011;54392;53.556;49.214;2022-09-03T20:08:05;4.87;;;4.28;;
67562;SDS011;54392;53.556;49.214;2022-09-03T20:10:51;6.65;;;4.80;;
67562;SDS011;54392;53.556;49.214;2022-09-03T20:13:20;4.85;;;3.85;;
67562;SDS011;54392;53.556;49.214;2022-09-03T20:20:51;21.30;;;7.80;;
67562;SDS011;54392;53.556;49.214;2022-09-03T20:26:32;6.75;;;4.72;;
67562;SDS011;54392;53.556;49.214;2022-09-03T20:31:59;7.00;;;5.82;;
67562;SDS011;54392;53.556;49.214;2022-09-03T20:37:12;9.65;;;5.30;;
67562;SDS011;54392;53.556;49.214;2022-09-03T20:43:06;7.85;;;6.05;;
67562;SDS011;54392;53.556;49.214;2022-09-03T21:00:08;9.85;;;6.03;;
67562;SDS011;54392;53.556;49.214;2022-09-03T21:08:47;7.53;;;5.57;;
67562;SDS011;54392;53.556;49.214;2022-09-03T21:11:52;12.10;;;7.93;;
67562;SDS011;54392;53.556;49.214;2022-09-03T21:14:36;16.25;;;8.45;;
67562;SDS011;54392;53.556;49.214;2022-09-03T21:20:12;20.98;;;13.90;;
67562;SDS011;54392;53.556;49.214;2022-09-03T21:28:28;11.88;;;7.43;;
67562;SDS011;54392;53.556;49.214;2022-09-03T21:31:06;8.73;;;7.93;;
67562;SDS011;54392;53.556;49.214;2022-09-03T21:33:57;22.02;;;10.27;;
67562;SDS011;54392;53.556;49.214;2022-09-03T21:36:35;13.62;;;9.77;;
67562;SDS011;54392;53.556;49.214;2022-09-03T21:39:08;29.25;;;19.05;;
67562;SDS011;54392;53.556;49.214;2022-09-03T21:41:43;35.30;;;19.83;;
67562;SDS011;54392;53.556;49.214;2022-09-03T21:44:15;65.43;;;45.75;;
67562;SDS011;54392;53.556;49.214;2022-09-03T21:46:48;46.58;;;32.17;;
67562;SDS011;54392;53.556;49.214;2022-09-03T21:49:23;101.35;;;64.40;;
67562;SDS011;54392;53.556;49.214;2022-09-03T21:54:22;83.47;;;51.70;;
67562;SDS011;54392;53.556;49.214;2022-09-03T21:57:13;59.00;;;38.13;;